sensor_id;sensor_type;location;lat;lon;timestamp;pressure;altitude;pressure_sealevel;temperature;humidity
60375;BME280;70244;48.792;9.172;2024-01-11T05:16:31;98472.69;;;15.74;69.65
60375;BME280;70244;48.792;9.172;2024-01-11T05:19:01;98478.78;;;15.75;69.63
60375;BME280;70244;48.792;9.172;2024-01-11T05:21:15;98482.12;;;15.76;69.66
60375;BME280;70244;48.792;9.172;2024-01-11T05:23:45;98483.81;;;15.83;69.44
60375;BME280;70244;48.792;9.172;2024-01-11T05:26:16;98485.98;;;15.78;69.62
60375;BME280;70244;48.792;9.172;2024-01-11T05:28:46;98487.32;;;15.85;69.51
60375;BME280;70244;48.792;9.172;2024-01-11T05:31:16;98488.70;;;15.92;69.49
60375;BME280;70244;48.792;9.172;2024-01-11T05:33:47;98489.53;;;15.83;69.64
60375;BME280;70244;48.792;9.172;2024-01-11T05:36:17;98490.37;;;15.83;69.72
60375;BME280;70244;48.792;9.172;2024-01-11T05:38:48;98497.14;;;15.94;69.42
60375;BME280;70244;48.792;9.172;2024-01-11T05:41:19;98496.51;;;15.84;69.75
60375;BME280;70244;48.792;9.172;2024-01-11T05:43:49;98503.11;;;16.05;69.24
60375;BME280;70244;48.792;9.172;2024-01-11T05:46:20;98505.03;;;15.95;69.36
60375;BME280;70244;48.792;9.172;2024-01-11T05:48:50;98506.65;;;15.94;69.35
60375;BME280;70244;48.792;9.172;2024-01-11T05:51:21;98509.61;;;16.03;68.95
60375;BME280;70244;48.792;9.172;2024-01-11T05:53:52;98510.94;;;16.18;68.70
60375;BME280;70244;48.792;9.172;2024-01-11T05:56:22;98511.63;;;16.18;68.99
60375;BME280;70244;48.792;9.172;2024-01-11T05:58:53;98523.02;;;16.31;68.89
60375;BME280;70244;48.792;9.172;2024-01-11T06:01:23;98522.75;;;16.35;66.65
60375;BME280;70244;48.792;9.172;2024-01-11T06:03:54;98528.16;;;16.42;67.28
60375;BME280;70244;48.792;9.172;2024-01-11T06:06:25;98527.56;;;16.87;66.86
60375;BME280;70244;48.792;9.172;2024-01-11T06:08:55;98531.38;;;16.83;67.17
60375;BME280;70244;48.792;9.172;2024-01-11T06:11:26;98530.80;;;17.02;66.90
60375;BME280;70244;48.792;9.172;2024-01-11T06:13:56;98531.03;;;16.53;68.13
60375;BME280;70244;48.792;9.172;2024-01-11T06:16:27;98528.50;;;16.92;67.43
60375;BME280;70244;48.792;9.172;2024-01-11T06:18:58;98525.32;;;16.57;68.45
60375;BME280;70244;48.792;9.172;2024-01-11T06:21:28;98529.08;;;16.48;69.36
60375;BME280;70244;48.792;9.172;2024-01-11T06:23:59;98526.95;;;16.44;69.53
60375;BME280;70244;48.792;9.172;2024-01-11T06:26:29;98526.47;;;16.43;69.39
60375;BME280;70244;48.792;9.172;2024-01-11T06:28:59;98524.32;;;16.77;66.32
60375;BME280;70244;48.792;9.172;2024-01-11T06:31:30;98523.11;;;16.50;64.88
60375;BME280;70244;48.792;9.172;2024-01-11T06:34:00;98519.80;;;16.28;65.06
60375;BME280;70244;48.792;9.172;2024-01-11T06:36:31;98525.18;;;16.26;63.75
60375;BME280;70244;48.792;9.172;2024-01-11T06:39:02;98520.42;;;16.14;64.27
60375;BME280;70244;48.792;9.172;2024-01-11T06:41:32;98524.18;;;16.12;64.26
60375;BME280;70244;48.792;9.172;2024-01-11T06:44:03;98530.61;;;16.31;64.28
60375;BME280;70244;48.792;9.172;2024-01-11T06:46:33;98530.53;;;16.28;64.73
60375;BME280;70244;48.792;9.172;2024-01-11T06:49:03;98525.16;;;16.17;65.23
60375;BME280;70244;48.792;9.172;2024-01-11T06:51:34;98531.70;;;16.37;64.98
60375;BME280;70244;48.792;9.172;2024-01-11T06:54:04;98538.50;;;16.46;64.93
60375;BME280;70244;48.792;9.172;2024-01-11T06:56:34;98536.95;;;16.23;65.70
60375;BME280;70244;48.792;9.172;2024-01-11T06:59:05;98537.10;;;16.28;65.80
60375;BME280;70244;48.792;9.172;2024-01-11T07:01:35;98538.91;;;16.26;66.02
60375;BME280;70244;48.792;9.172;2024-01-11T07:04:05;98543.96;;;16.29;66.11
60375;BME280;70244;48.792;9.172;2024-01-11T07:06:36;98545.77;;;16.33;66.12
60375;BME280;70244;48.792;9.172;2024-01-11T07:09:06;98552.11;;;16.32;66.26
60375;BME280;70244;48.792;9.172;2024-01-11T07:11:37;98553.45;;;16.16;66.87
60375;BME280;70244;48.792;9.172;2024-01-11T07:14:07;98557.34;;;16.18;67.17
60375;BME280;70244;48.792;9.172;2024-01-11T07:16:37;98563.80;;;16.22;67.31
60375;BME280;70244;48.792;9.172;2024-01-11T07:19:08;98556.57;;;16.19;67.31
60375;BME280;70244;48.792;9.172;2024-01-11T07:21:38;98553.97;;;16.10;67.55
60375;BME280;70244;48.792;9.172;2024-01-11T07:24:08;98551.01;;;16.18;67.46
60375;BME280;70244;48.792;9.172;2024-01-11T07:26:39;98552.35;;;16.05;67.70
60375;BME280;70244;48.792;9.172;2024-01-11T07:29:10;98557.82;;;16.08;67.70
60375;BME280;70244;48.792;9.172;2024-01-11T07:31:41;98565.46;;;15.94;68.17
60375;BME280;70244;48.792;9.172;2024-01-11T07:34:11;98563.06;;;15.82;68.45
60375;BME280;70244;48.792;9.172;2024-01-11T07:36:42;98573.17;;;15.90;68.39
60375;BME280;70244;48.792;9.172;2024-01-11T07:39:12;98580.39;;;15.86;68.48
60375;BME280;70244;48.792;9.172;2024-01-11T07:41:42;98577.97;;;15.78;68.71
60375;BME280;70244;48.792;9.172;2024-01-11T07:44:13;98581.86;;;15.87;68.60
60375;BME280;70244;48.792;9.172;2024-01-11T07:46:43;98572.13;;;15.81;68.71
60375;BME280;70244;48.792;9.172;2024-01-11T07:49:13;98576.23;;;15.67;69.09
60375;BME280;70244;48.792;9.172;2024-01-11T07:51:44;98578.65;;;15.77;68.76
60375;BME280;70244;48.792;9.172;2024-01-11T07:54:15;98587.39;;;15.72;68.93
60375;BME280;70244;48.792;9.172;2024-01-11T07:56:45;98590.47;;;15.81;68.78
60375;BME280;70244;48.792;9.172;2024-01-11T07:59:16;98593.97;;;15.85;68.65
60375;BME280;70244;48.792;9.172;2024-01-11T08:01:46;98613.75;;;15.67;69.14
60375;BME280;70244;48.792;9.172;2024-01-11T08:04:16;98622.20;;;15.56;69.44
60375;BME280;70244;48.792;9.172;2024-01-11T08:06:47;98632.78;;;15.47;69.72
60375;BME280;70244;48.792;9.172;2024-01-11T08:09:17;98634.61;;;15.47;69.72
60375;BME280;70244;48.792;9.172;2024-01-11T08:11:48;98627.42;;;15.29;70.22
60375;BME280;70244;48.792;9.172;2024-01-11T08:14:18;98629.27;;;15.46;69.79
60375;BME280;70244;48.792;9.172;2024-01-11T08:16:48;98638.09;;;15.34;70.25
60375;BME280;70244;48.792;9.172;2024-01-11T08:19:19;98640.33;;;15.33;70.30
60375;BME280;70244;48.792;9.172;2024-01-11T08:21:49;98637.65;;;15.38;70.36
60375;BME280;70244;48.792;9.172;2024-01-11T08:24:20;98639.44;;;15.35;70.54
60375;BME280;70244;48.792;9.172;2024-01-11T08:26:50;98648.16;;;15.45;70.69
60375;BME280;70244;48.792;9.172;2024-01-11T08:29:21;98650.60;;;15.68;70.31
60375;BME280;70244;48.792;9.172;2024-01-11T08:31:51;98650.21;;;15.59;70.97
60375;BME280;70244;48.792;9.172;2024-01-11T08:34:21;98647.55;;;15.37;71.55
60375;BME280;70244;48.792;9.172;2024-01-11T08:36:52;98648.55;;;15.42;71.61
60375;BME280;70244;48.792;9.172;2024-01-11T08:39:22;98648.95;;;15.37;71.77
60375;BME280;70244;48.792;9.172;2024-01-11T08:41:52;98648.27;;;15.44;71.62
60375;BME280;70244;48.792;9.172;2024-01-11T08:44:22;98652.55;;;15.46;71.60
60375;BME280;70244;48.792;9.172;2024-01-11T08:46:53;98655.25;;;15.38;71.79
60375;BME280;70244;48.792;9.172;2024-01-11T08:49:23;98651.42;;;15.35;71.85
60375;BME280;70244;48.792;9.172;2024-01-11T08:51:54;98651.21;;;15.33;71.98
60375;BME280;70244;48.792;9.172;2024-01-11T08:54:25;98645.73;;;15.42;71.80
60375;BME280;70244;48.792;9.172;2024-01-11T08:56:55;98647.75;;;15.34;72.15
60375;BME280;70244;48.792;9.172;2024-01-11T08:59:25;98643.84;;;15.33;72.07
60375;BME280;70244;48.792;9.172;2024-01-11T09:01:56;98644.36;;;15.46;71.83
60375;BME280;70244;48.792;9.172;2024-01-11T09:04:27;98642.37;;;15.40;72.02
60375;BME280;70244;48.792;9.172;2024-01-11T09:06:57;98643.30;;;15.32;72.31
60375;BME280;70244;48.792;9.172;2024-01-11T09:09:27;98642.81;;;15.11;73.06
60375;BME280;70244;48.792;9.172;2024-01-11T09:11:58;98649.11;;;15.35;72.22
60375;BME280;70244;48.792;9.172;2024-01-11T09:14:29;98658.09;;;15.30;72.41
60375;BME280;70244;48.792;9.172;2024-01-11T09:17:00;98660.17;;;15.28;71.98
60375;BME280;70244;48.792;9.172;2024-01-11T09:19:30;98651.11;;;15.44;71.51
60375;BME280;70244;48.792;9.172;2024-01-11T09:22:01;98653.30;;;15.42;71.56
60375;BME280;70244;48.792;9.172;2024-01-11T09:24:31;98654.74;;;15.58;71.05
60375;BME280;70244;48.792;9.172;2024-01-11T09:27:02;98652.23;;;15.37;71.55
60375;BME280;70244;48.792;9.172;2024-01-11T09:29:33;98653.83;;;15.46;71.30
60375;BME280;70244;48.792;9.172;2024-01-11T09:32:04;98668.54;;;15.55;71.14
60375;BME280;70244;48.792;9.172;2024-01-11T09:34:34;98674.03;;;15.33;71.57
60375;BME280;70244;48.792;9.172;2024-01-11T09:37:04;98664.24;;;15.42;71.53
60375;BME280;70244;48.792;9.172;2024-01-11T09:39:34;98658.36;;;15.48;71.30
60375;BME280;70244;48.792;9.172;2024-01-11T09:42:07;98660.51;;;15.50;71.31
60375;BME280;70244;48.792;9.172;2024-01-11T09:44:36;98673.30;;;15.40;71.45
60375;BME280;70244;48.792;9.172;2024-01-11T09:47:08;98675.94;;;15.37;71.43
60375;BME280;70244;48.792;9.172;2024-01-11T09:49:37;98680.09;;;15.40;71.39
60375;BME280;70244;48.792;9.172;2024-01-11T09:52:07;98675.85;;;15.34;71.48
60375;BME280;70244;48.792;9.172;2024-01-11T09:54:38;98671.22;;;15.32;71.54
60375;BME280;70244;48.792;9.172;2024-01-11T09:57:08;98676.81;;;15.26;71.76
60375;BME280;70244;48.792;9.172;2024-01-11T09:59:39;98677.13;;;15.25;71.73
60375;BME280;70244;48.792;9.172;2024-01-11T10:02:10;98671.08;;;15.19;71.93
60375;BME280;70244;48.792;9.172;2024-01-11T10:04:42;98671.35;;;15.26;71.76
60375;BME280;70244;48.792;9.172;2024-01-11T10:07:10;98673.81;;;14.97;72.63
60375;BME280;70244;48.792;9.172;2024-01-11T10:09:40;98668.12;;;15.15;72.13
60375;BME280;70244;48.792;9.172;2024-01-11T10:12:10;98662.80;;;15.41;71.55
60375;BME280;70244;48.792;9.172;2024-01-11T10:14:41;98655.45;;;15.39;71.49
60375;BME280;70244;48.792;9.172;2024-01-11T10:17:11;98652.79;;;15.69;70.74
60375;BME280;70244;48.792;9.172;2024-01-11T10:19:42;98644.44;;;15.79;70.35
60375;BME280;70244;48.792;9.172;2024-01-11T10:22:12;98639.01;;;15.59;70.98
60375;BME280;70244;48.792;9.172;2024-01-11T10:24:43;98629.73;;;15.45;71.32
60375;BME280;70244;48.792;9.172;2024-01-11T10:27:13;98624.97;;;15.51;71.11
60375;BME280;70244;48.792;9.172;2024-01-11T10:29:45;98623.09;;;15.38;71.58
60375;BME280;70244;48.792;9.172;2024-01-11T10:32:15;98620.44;;;15.28;71.67
60375;BME280;70244;48.792;9.172;2024-01-11T10:34:45;98619.76;;;15.04;72.44
60375;BME280;70244;48.792;9.172;2024-01-11T10:37:16;98619.35;;;15.22;71.95
60375;BME280;70244;48.792;9.172;2024-01-11T10:39:47;98620.29;;;15.23;71.83
60375;BME280;70244;48.792;9.172;2024-01-11T10:42:19;98623.45;;;15.24;71.71
60375;BME280;70244;48.792;9.172;2024-01-11T10:44:48;98624.59;;;15.19;71.93
60375;BME280;70244;48.792;9.172;2024-01-11T10:47:20;98631.92;;;15.16;72.00
60375;BME280;70244;48.792;9.172;2024-01-11T10:49:50;98636.68;;;15.18;72.01
60375;BME280;70244;48.792;9.172;2024-01-11T10:52:24;98645.03;;;15.09;72.26
60375;BME280;70244;48.792;9.172;2024-01-11T10:54:50;98645.03;;;15.16;72.05
60375;BME280;70244;48.792;9.172;2024-01-11T10:57:20;98645.89;;;15.08;72.28
60375;BME280;70244;48.792;9.172;2024-01-11T10:59:51;98648.66;;;15.06;72.29
60375;BME280;70244;48.792;9.172;2024-01-11T11:02:22;98644.14;;;15.08;72.22
60375;BME280;70244;48.792;9.172;2024-01-11T11:04:53;98643.25;;;15.02;72.36
60375;BME280;70244;48.792;9.172;2024-01-11T11:07:23;98644.70;;;15.04;72.19
60375;BME280;70244;48.792;9.172;2024-01-11T11:09:54;98640.64;;;15.03;72.27
60375;BME280;70244;48.792;9.172;2024-01-11T11:12:23;98635.32;;;14.81;72.87
60375;BME280;70244;48.792;9.172;2024-01-11T11:14:54;98641.68;;;15.06;72.21
60375;BME280;70244;48.792;9.172;2024-01-11T11:17:24;98642.97;;;15.23;71.82
60375;BME280;70244;48.792;9.172;2024-01-11T11:19:55;98637.78;;;15.15;72.05
60375;BME280;70244;48.792;9.172;2024-01-11T11:22:27;98632.45;;;15.20;71.88
60375;BME280;70244;48.792;9.172;2024-01-11T11:25:04;98630.61;;;15.16;72.03
60375;BME280;70244;48.792;9.172;2024-01-11T11:27:26;98631.19;;;15.10;72.21
60375;BME280;70244;48.792;9.172;2024-01-11T11:29:56;98626.78;;;15.12;72.18
60375;BME280;70244;48.792;9.172;2024-01-11T11:32:35;98623.71;;;15.12;72.16
60375;BME280;70244;48.792;9.172;2024-01-11T11:34:57;98627.38;;;15.03;72.46
60375;BME280;70244;48.792;9.172;2024-01-11T11:37:29;98638.26;;;15.08;72.34
60375;BME280;70244;48.792;9.172;2024-01-11T11:39:59;98637.71;;;15.14;72.03
60375;BME280;70244;48.792;9.172;2024-01-11T11:42:30;98629.45;;;15.03;72.43
60375;BME280;70244;48.792;9.172;2024-01-11T11:44:59;98627.15;;;15.04;72.26
60375;BME280;70244;48.792;9.172;2024-01-11T11:47:34;98622.74;;;15.04;72.29
60375;BME280;70244;48.792;9.172;2024-01-11T11:50:06;98624.45;;;15.14;71.87
60375;BME280;70244;48.792;9.172;2024-01-11T11:52:33;98617.77;;;14.93;72.60
60375;BME280;70244;48.792;9.172;2024-01-11T11:55:03;98614.27;;;15.12;72.06
60375;BME280;70244;48.792;9.172;2024-01-11T11:57:33;98608.69;;;15.10;72.06
60375;BME280;70244;48.792;9.172;2024-01-11T12:00:03;98609.92;;;14.96;72.43
60375;BME280;70244;48.792;9.172;2024-01-11T12:02:33;98614.34;;;15.10;72.01
60375;BME280;70244;48.792;9.172;2024-01-11T12:05:04;98606.78;;;14.97;72.33
60375;BME280;70244;48.792;9.172;2024-01-11T12:07:34;98596.99;;;14.86;72.71
60375;BME280;70244;48.792;9.172;2024-01-11T12:10:06;98590.04;;;15.06;72.14
60375;BME280;70244;48.792;9.172;2024-01-11T12:12:35;98575.43;;;15.06;72.10
60375;BME280;70244;48.792;9.172;2024-01-11T12:15:06;98579.28;;;15.13;71.88
60375;BME280;70244;48.792;9.172;2024-01-11T12:17:35;98589.26;;;15.11;72.01
60375;BME280;70244;48.792;9.172;2024-01-11T12:20:07;98586.03;;;15.08;71.99
60375;BME280;70244;48.792;9.172;2024-01-11T12:22:37;98574.74;;;15.22;71.58
60375;BME280;70244;48.792;9.172;2024-01-11T12:25:07;98574.81;;;15.08;71.92
60375;BME280;70244;48.792;9.172;2024-01-11T12:27:38;98577.85;;;15.31;71.33
60375;BME280;70244;48.792;9.172;2024-01-11T12:30:10;98576.85;;;15.29;71.35
60375;BME280;70244;48.792;9.172;2024-01-11T12:32:39;98580.06;;;15.22;71.49
60375;BME280;70244;48.792;9.172;2024-01-11T12:35:10;98580.53;;;15.06;72.05
60375;BME280;70244;48.792;9.172;2024-01-11T12:37:40;98576.05;;;15.11;71.85
60375;BME280;70244;48.792;9.172;2024-01-11T12:40:12;98580.73;;;15.00;72.17
60375;BME280;70244;48.792;9.172;2024-01-11T12:42:41;98575.48;;;15.15;71.85
60375;BME280;70244;48.792;9.172;2024-01-11T12:45:13;98577.59;;;15.16;71.88
60375;BME280;70244;48.792;9.172;2024-01-11T12:47:42;98575.34;;;15.20;71.68
60375;BME280;70244;48.792;9.172;2024-01-11T12:50:12;98570.93;;;15.09;72.01
60375;BME280;70244;48.792;9.172;2024-01-11T12:52:43;98564.39;;;15.12;71.88
60375;BME280;70244;48.792;9.172;2024-01-11T12:55:18;98567.00;;;15.23;71.46
60375;BME280;70244;48.792;9.172;2024-01-11T12:57:44;98560.36;;;15.15;71.75
60375;BME280;70244;48.792;9.172;2024-01-11T13:00:15;98556.01;;;15.16;71.77
60375;BME280;70244;48.792;9.172;2024-01-11T13:02:45;98554.10;;;15.32;71.31
60375;BME280;70244;48.792;9.172;2024-01-11T13:05:16;98552.50;;;15.28;71.46
60375;BME280;70244;48.792;9.172;2024-01-11T13:07:47;98550.88;;;15.31;71.38
60375;BME280;70244;48.792;9.172;2024-01-11T13:10:17;98546.84;;;15.43;71.03
60375;BME280;70244;48.792;9.172;2024-01-11T13:12:47;98552.14;;;15.33;71.32
60375;BME280;70244;48.792;9.172;2024-01-11T13:15:18;98553.21;;;15.25;71.51
60375;BME280;70244;48.792;9.172;2024-01-11T13:17:49;98559.04;;;15.29;71.45
60375;BME280;70244;48.792;9.172;2024-01-11T13:20:19;98554.39;;;15.22;71.64
60375;BME280;70244;48.792;9.172;2024-01-11T13:22:53;98548.77;;;15.16;71.74
60375;BME280;70244;48.792;9.172;2024-01-11T13:25:20;98556.37;;;15.25;71.50
60375;BME280;70244;48.792;9.172;2024-01-11T13:27:51;98562.36;;;15.22;71.63
60375;BME280;70244;48.792;9.172;2024-01-11T13:30:22;98559.97;;;15.06;72.00
60375;BME280;70244;48.792;9.172;2024-01-11T13:32:52;98570.99;;;15.09;71.89
60375;BME280;70244;48.792;9.172;2024-01-11T13:35:23;98572.30;;;15.04;71.92
60375;BME280;70244;48.792;9.172;2024-01-11T13:37:53;98575.61;;;14.95;72.14
60375;BME280;70244;48.792;9.172;2024-01-11T13:40:24;98576.26;;;14.90;72.37
60375;BME280;70244;48.792;9.172;2024-01-11T13:42:55;98576.34;;;14.91;72.22
60375;BME280;70244;48.792;9.172;2024-01-11T13:45:26;98580.27;;;14.91;72.13
60375;BME280;70244;48.792;9.172;2024-01-11T13:47:57;98578.75;;;14.91;72.03
60375;BME280;70244;48.792;9.172;2024-01-11T13:50:27;98579.66;;;15.02;71.69
60375;BME280;70244;48.792;9.172;2024-01-11T13:52:58;98585.54;;;14.96;71.84
60375;BME280;70244;48.792;9.172;2024-01-11T13:55:31;98584.01;;;14.99;71.61
60375;BME280;70244;48.792;9.172;2024-01-11T13:57:59;98583.51;;;15.00;71.67
60375;BME280;70244;48.792;9.172;2024-01-11T14:00:29;98584.25;;;14.97;71.71
60375;BME280;70244;48.792;9.172;2024-01-11T14:03:00;98591.68;;;14.94;71.77
60375;BME280;70244;48.792;9.172;2024-01-11T14:05:30;98588.26;;;14.93;71.72
60375;BME280;70244;48.792;9.172;2024-01-11T14:08:01;98582.63;;;14.96;71.61
60375;BME280;70244;48.792;9.172;2024-01-11T14:10:32;98588.31;;;15.03;71.43
60375;BME280;70244;48.792;9.172;2024-01-11T14:13:03;98598.97;;;15.02;71.32
60375;BME280;70244;48.792;9.172;2024-01-11T14:15:33;98602.94;;;14.90;71.63
60375;BME280;70244;48.792;9.172;2024-01-11T14:18:06;98610.42;;;14.72;72.11
60375;BME280;70244;48.792;9.172;2024-01-11T14:20:34;98619.22;;;14.85;71.70
60375;BME280;70244;48.792;9.172;2024-01-11T14:23:05;98623.90;;;14.93;71.44
60375;BME280;70244;48.792;9.172;2024-01-11T14:25:35;98623.86;;;14.96;71.29
60375;BME280;70244;48.792;9.172;2024-01-11T14:28:06;98613.29;;;14.82;71.67
60375;BME280;70244;48.792;9.172;2024-01-11T14:30:36;98618.13;;;14.95;71.19
60375;BME280;70244;48.792;9.172;2024-01-11T14:33:07;98619.20;;;14.83;71.52
60375;BME280;70244;48.792;9.172;2024-01-11T14:35:37;98620.78;;;14.92;71.26
60375;BME280;70244;48.792;9.172;2024-01-11T14:38:08;98617.63;;;14.87;71.33
60375;BME280;70244;48.792;9.172;2024-01-11T14:40:38;98613.09;;;14.70;71.82
60375;BME280;70244;48.792;9.172;2024-01-11T14:43:09;98611.91;;;14.83;71.48
60375;BME280;70244;48.792;9.172;2024-01-11T14:45:39;98616.40;;;14.94;71.09
60375;BME280;70244;48.792;9.172;2024-01-11T14:48:10;98619.18;;;14.94;71.12
60375;BME280;70244;48.792;9.172;2024-01-11T14:50:41;98620.46;;;14.68;71.76
60375;BME280;70244;48.792;9.172;2024-01-11T14:53:12;98617.40;;;14.63;71.88
60375;BME280;70244;48.792;9.172;2024-01-11T14:55:42;98613.37;;;14.58;72.11
60375;BME280;70244;48.792;9.172;2024-01-11T14:58:12;98616.71;;;14.63;71.94
60375;BME280;70244;48.792;9.172;2024-01-11T15:00:42;98623.51;;;14.56;72.13
60375;BME280;70244;48.792;9.172;2024-01-11T15:03:13;98624.85;;;14.61;71.94
60375;BME280;70244;48.792;9.172;2024-01-11T15:05:44;98625.32;;;14.56;72.08
60375;BME280;70244;48.792;9.172;2024-01-11T15:08:14;98631.68;;;14.45;72.30
60375;BME280;70244;48.792;9.172;2024-01-11T15:10:44;98630.15;;;14.47;72.29
60375;BME280;70244;48.792;9.172;2024-01-11T15:13:14;98634.70;;;14.44;72.37
60375;BME280;70244;48.792;9.172;2024-01-11T15:15:44;98628.84;;;14.53;72.12
60375;BME280;70244;48.792;9.172;2024-01-11T15:18:15;98625.82;;;14.55;72.06
60375;BME280;70244;48.792;9.172;2024-01-11T15:20:46;98629.47;;;14.58;71.97
60375;BME280;70244;48.792;9.172;2024-01-11T15:23:16;98634.64;;;14.78;71.47
60375;BME280;70244;48.792;9.172;2024-01-11T15:25:46;98637.42;;;14.84;71.37
60375;BME280;70244;48.792;9.172;2024-01-11T15:28:17;98639.26;;;14.89;71.18
60375;BME280;70244;48.792;9.172;2024-01-11T15:30:47;98639.03;;;14.92;71.15
60375;BME280;70244;48.792;9.172;2024-01-11T15:33:17;98640.87;;;14.87;71.21
60375;BME280;70244;48.792;9.172;2024-01-11T15:35:48;98644.93;;;14.81;71.35
60375;BME280;70244;48.792;9.172;2024-01-11T15:38:18;98646.84;;;14.75;71.51
60375;BME280;70244;48.792;9.172;2024-01-11T15:40:49;98648.09;;;14.67;71.84
60375;BME280;70244;48.792;9.172;2024-01-11T15:43:19;98654.88;;;14.74;71.54
60375;BME280;70244;48.792;9.172;2024-01-11T15:45:50;98664.15;;;14.50;72.21
60375;BME280;70244;48.792;9.172;2024-01-11T15:48:21;98662.58;;;14.47;72.33
60375;BME280;70244;48.792;9.172;2024-01-11T15:50:51;98658.80;;;14.38;72.55
60375;BME280;70244;48.792;9.172;2024-01-11T15:53:22;98655.79;;;14.42;72.44
60375;BME280;70244;48.792;9.172;2024-01-11T15:55:52;98658.77;;;14.38;72.55
60375;BME280;70244;48.792;9.172;2024-01-11T15:58:23;98659.76;;;14.49;72.20
60375;BME280;70244;48.792;9.172;2024-01-11T16:00:54;98663.00;;;14.44;72.33
60375;BME280;70244;48.792;9.172;2024-01-11T16:03:25;98656.63;;;14.68;71.78
60375;BME280;70244;48.792;9.172;2024-01-11T16:05:55;98650.81;;;14.95;71.42
60375;BME280;70244;48.792;9.172;2024-01-11T16:08:25;98647.40;;;14.97;71.42
60375;BME280;70244;48.792;9.172;2024-01-11T16:10:56;98648.93;;;15.23;70.88
60375;BME280;70244;48.792;9.172;2024-01-11T16:13:26;98658.03;;;15.36;70.52
60375;BME280;70244;48.792;9.172;2024-01-11T16:15:57;98664.71;;;15.46;70.27
60375;BME280;70244;48.792;9.172;2024-01-11T16:18:27;98673.32;;;15.60;69.47
60375;BME280;70244;48.792;9.172;2024-01-11T16:20:58;98670.95;;;16.20;66.89
60375;BME280;70244;48.792;9.172;2024-01-11T16:23:28;98665.74;;;16.24;65.57
60375;BME280;70244;48.792;9.172;2024-01-11T16:25:59;98665.57;;;16.54;63.27
60375;BME280;70244;48.792;9.172;2024-01-11T16:28:29;98670.68;;;16.59;60.30
60375;BME280;70244;48.792;9.172;2024-01-11T16:31:01;98670.26;;;16.54;60.89
60375;BME280;70244;48.792;9.172;2024-01-11T16:33:30;98664.58;;;16.42;60.92
60375;BME280;70244;48.792;9.172;2024-01-11T16:36:02;98668.79;;;16.82;60.71
60375;BME280;70244;48.792;9.172;2024-01-11T16:38:31;98661.67;;;16.85;60.94
60375;BME280;70244;48.792;9.172;2024-01-11T16:41:01;98660.45;;;17.30;60.41
60375;BME280;70244;48.792;9.172;2024-01-11T16:43:32;98666.96;;;17.54;60.42
60375;BME280;70244;48.792;9.172;2024-01-11T16:46:03;98672.89;;;18.03;60.34
60375;BME280;70244;48.792;9.172;2024-01-11T16:48:34;98666.12;;;17.71;62.16
60375;BME280;70244;48.792;9.172;2024-01-11T16:51:04;98670.85;;;17.93;61.77
60375;BME280;70244;48.792;9.172;2024-01-11T16:53:34;98668.29;;;17.95;61.77
60375;BME280;70244;48.792;9.172;2024-01-11T16:56:05;98668.00;;;18.34;61.56
60375;BME280;70244;48.792;9.172;2024-01-11T16:58:36;98675.26;;;18.51;62.56
60375;BME280;70244;48.792;9.172;2024-01-11T17:01:06;98687.67;;;18.49;61.87
60375;BME280;70244;48.792;9.172;2024-01-11T17:03:37;98687.03;;;18.76;61.31
60375;BME280;70244;48.792;9.172;2024-01-11T17:06:07;98689.00;;;18.80;61.22
60375;BME280;70244;48.792;9.172;2024-01-11T17:08:38;98696.58;;;18.54;63.39
60375;BME280;70244;48.792;9.172;2024-01-11T17:11:08;98696.70;;;18.69;62.38
60375;BME280;70244;48.792;9.172;2024-01-11T17:13:39;98693.11;;;18.86;62.27
60375;BME280;70244;48.792;9.172;2024-01-11T17:16:15;98696.65;;;18.55;64.34
60375;BME280;70244;48.792;9.172;2024-01-11T17:18:40;98694.95;;;19.19;62.48
60375;BME280;70244;48.792;9.172;2024-01-11T17:21:10;98700.27;;;19.21;63.18
60375;BME280;70244;48.792;9.172;2024-01-11T17:23:41;98704.58;;;18.86;65.03
60375;BME280;70244;48.792;9.172;2024-01-11T17:26:11;98703.12;;;18.74;64.56
60375;BME280;70244;48.792;9.172;2024-01-11T17:28:42;98699.68;;;18.99;62.60
60375;BME280;70244;48.792;9.172;2024-01-11T17:31:12;98688.94;;;18.82;62.44
60375;BME280;70244;48.792;9.172;2024-01-11T17:33:43;98690.87;;;18.82;61.87
60375;BME280;70244;48.792;9.172;2024-01-11T17:36:14;98694.70;;;18.78;61.86
60375;BME280;70244;48.792;9.172;2024-01-11T17:38:44;98698.73;;;18.84;61.72
60375;BME280;70244;48.792;9.172;2024-01-11T17:41:15;98687.92;;;18.66;62.12
60375;BME280;70244;48.792;9.172;2024-01-11T17:43:46;98700.27;;;18.64;62.17
60375;BME280;70244;48.792;9.172;2024-01-11T17:46:21;98711.92;;;18.47;62.47
60375;BME280;70244;48.792;9.172;2024-01-11T17:48:46;98687.90;;;18.47;62.35
60375;BME280;70244;48.792;9.172;2024-01-11T17:51:16;98684.55;;;18.33;62.69
60375;BME280;70244;48.792;9.172;2024-01-11T17:53:47;98680.16;;;18.44;62.49
60375;BME280;70244;48.792;9.172;2024-01-11T17:56:18;98683.93;;;18.38;62.78
60375;BME280;70244;48.792;9.172;2024-01-11T17:58:48;98684.54;;;18.60;62.41
60375;BME280;70244;48.792;9.172;2024-01-11T18:01:20;98690.41;;;18.27;63.59
60375;BME280;70244;48.792;9.172;2024-01-11T18:03:49;98684.59;;;18.55;63.63
60375;BME280;70244;48.792;9.172;2024-01-11T18:06:19;98695.31;;;18.49;64.73
60375;BME280;70244;48.792;9.172;2024-01-11T18:08:50;98694.59;;;18.50;64.30
60375;BME280;70244;48.792;9.172;2024-01-11T18:11:20;98696.02;;;18.97;63.24
60375;BME280;70244;48.792;9.172;2024-01-11T18:13:51;98698.53;;;18.76;66.20
60375;BME280;70244;48.792;9.172;2024-01-11T18:16:21;98703.77;;;18.62;64.21
60375;BME280;70244;48.792;9.172;2024-01-11T18:18:52;98711.83;;;18.49;64.47
60375;BME280;70244;48.792;9.172;2024-01-11T18:21:22;98712.40;;;18.95;63.99
60375;BME280;70244;48.792;9.172;2024-01-11T18:23:52;98724.87;;;18.46;64.77
60375;BME280;70244;48.792;9.172;2024-01-11T18:26:23;98727.92;;;18.50;65.15
60375;BME280;70244;48.792;9.172;2024-01-11T18:28:54;98722.94;;;18.25;65.51
60375;BME280;70244;48.792;9.172;2024-01-11T18:31:24;98713.83;;;18.71;64.26